Olmito, Texas
Current Conditions -  °F | °C
As of 2:53 AM on Saturday 22 Nov 2014 (Local Time) from KBRO Reporting Station
Overcast Overcast  
Wind Chill: 73°   Ceiling: 2100
Heat Index: 73°   Visibility: 8mi
Dew Point: 70°   Wind: 8mph
Humidity: 90%   Direction: 140°SE
Pressure: 29.99"   Gusts: NA
Location:  26.02°N, 97.53°W
Report Text: KBRO 220853Z 14007KT 8SM SCT014 BKN021 OVC036 23/21 A2999 RMK AO2 SLP155 T02280211 55012
Loading
Personal Weather Stations






























Interactive Weather Map New forecast layout! Learn more

10-Day Weather Forecast

Advertisements
Track Severe Weather on mobile